Time;durP1;ratioP1;P1;durP2;ratioP2;P2;SDS_P1;SDS_P2;PMS_P1;PMS_P2;Temp;Humidity;BMP_temperature;BMP_pressure;BME280_temperature;BME280_humidity;BME280_pressure;Samples;Min_cycle;Max_cycle;Signal;HPM_P1;HPM_P2
2023/03/12 00:00:38;;;;;;;17.30;6.57;;;;;;;-145.01;100.00;64805.59;5083207;28;20025;-59
2023/03/12 00:03:03;;;;;;;10.30;6.03;;;;;;;-145.01;100.00;64805.59;5060146;28;20083;-59
2023/03/12 00:05:29;;;;;;;19.23;6.57;;;;;;;-145.01;100.00;64805.59;5089397;28;20032;-59
2023/03/12 00:07:58;;;;;;;14.63;5.90;;;;;;;-145.01;100.00;64805.59;5075352;28;20075;-59
2023/03/12 00:10:26;;;;;;;10.05;5.32;;;;;;;-145.01;100.00;64805.59;5081001;28;20050;-59
2023/03/12 00:12:52;;;;;;;10.70;5.72;;;;;;;-145.01;100.00;64805.59;5056021;28;20179;-59
2023/03/12 00:15:17;;;;;;;10.48;5.25;;;;;;;-145.01;100.00;64805.59;5079178;28;20482;-59
2023/03/12 00:17:42;;;;;;;12.63;4.93;;;;;;;-145.01;100.00;64805.59;5091224;28;20437;-59
2023/03/12 00:20:08;;;;;;;7.90;4.47;;;;;;;-145.01;100.00;64805.59;5091517;28;20050;-59
2023/03/12 00:22:34;;;;;;;10.00;4.57;;;;;;;-145.01;100.00;64805.59;5082100;28;20019;-59
2023/03/12 00:24:59;;;;;;;12.98;4.80;;;;;;;-145.01;100.00;64805.59;5083805;28;20085;-59
2023/03/12 00:27:25;;;;;;;8.10;4.03;;;;;;;-145.01;100.00;64805.59;5058562;28;20228;-59
2023/03/12 00:29:50;;;;;;;9.02;4.70;;;;;;;-145.01;100.00;64805.59;5056279;28;20024;-59
2023/03/12 00:32:16;;;;;;;7.97;4.25;;;;;;;-145.01;100.00;64805.59;5077736;28;20154;-59
2023/03/12 00:34:41;;;;;;;11.40;4.70;;;;;;;-145.01;100.00;64805.59;5086819;28;20055;-59
2023/03/12 00:37:07;;;;;;;13.18;5.55;;;;;;;-145.01;100.00;64805.59;5087233;28;20044;-59
2023/03/12 00:39:33;;;;;;;15.13;7.03;;;;;;;-145.01;100.00;64805.59;5081675;28;20036;-59
2023/03/12 00:41:59;;;;;;;11.55;5.70;;;;;;;-145.01;100.00;64805.59;5090781;28;20029;-59
2023/03/12 00:44:24;;;;;;;15.00;8.02;;;;;;;-145.01;100.00;64805.59;5087101;28;20039;-59
2023/03/12 00:46:50;;;;;;;14.90;7.53;;;;;;;-145.01;100.00;64805.59;5079264;28;20065;-58
2023/03/12 00:49:16;;;;;;;15.85;8.88;;;;;;;-145.01;100.00;64805.59;5077725;28;20364;-59
2023/03/12 00:51:41;;;;;;;13.27;7.38;;;;;;;-145.01;100.00;64805.59;5074266;28;20033;-59
2023/03/12 00:54:07;;;;;;;17.88;7.85;;;;;;;-145.01;100.00;64805.59;5090639;28;20367;-59
2023/03/12 00:56:32;;;;;;;13.65;6.40;;;;;;;-145.01;100.00;64805.59;5088130;28;20028;-59
2023/03/12 00:58:58;;;;;;;14.68;6.95;;;;;;;-145.01;100.00;64805.59;5086337;28;20028;-59
2023/03/12 01:01:23;;;;;;;19.15;6.53;;;;;;;-145.01;100.00;64805.59;5075763;28;20414;-59
2023/03/12 01:03:50;;;;;;;13.23;6.78;;;;;;;-145.01;100.00;64805.59;5076592;28;20038;-59
2023/03/12 01:06:16;;;;;;;14.98;6.60;;;;;;;-145.01;100.00;64805.59;5084224;28;20050;-59
2023/03/12 01:08:41;;;;;;;16.35;7.20;;;;;;;-145.01;100.00;64805.59;5072087;28;20482;-58
2023/03/12 01:11:07;;;;;;;16.45;7.50;;;;;;;-145.01;100.00;64805.59;5060970;28;20118;-59
2023/03/12 01:13:32;;;;;;;15.50;7.40;;;;;;;-145.01;100.00;64805.59;5087099;28;20539;-59
2023/03/12 01:15:58;;;;;;;14.13;7.38;;;;;;;-145.01;100.00;64805.59;5076516;28;20024;-59
2023/03/12 01:18:23;;;;;;;17.55;8.32;;;;;;;-145.01;100.00;64805.59;5082972;28;20050;-59
2023/03/12 01:20:48;;;;;;;16.95;7.93;;;;;;;-145.01;100.00;64805.59;5083119;28;20024;-59
2023/03/12 01:23:14;;;;;;;14.20;7.28;;;;;;;-145.01;100.00;64805.59;5079073;28;20035;-59
2023/03/12 01:25:40;;;;;;;14.30;7.18;;;;;;;-145.01;100.00;64805.59;5058648;28;20028;-59
2023/03/12 01:28:06;;;;;;;14.82;7.97;;;;;;;-145.01;100.00;64805.59;5082659;28;20055;-59
2023/03/12 01:30:31;;;;;;;14.98;7.15;;;;;;;-145.01;100.00;64805.59;5076666;28;20207;-59
2023/03/12 01:32:57;;;;;;;13.45;7.30;;;;;;;-145.01;100.00;64805.59;5081862;28;20028;-59
2023/03/12 01:35:22;;;;;;;10.80;6.38;;;;;;;-145.01;100.00;64805.59;5079392;28;20027;-59
2023/03/12 01:37:47;;;;;;;12.07;5.70;;;;;;;-145.01;100.00;64805.59;5076481;28;20039;-59
2023/03/12 01:40:18;;;;;;;10.75;5.40;;;;;;;-145.01;100.00;64805.59;5083577;28;20074;-59
2023/03/12 01:42:51;;;;;;;9.57;5.57;;;;;;;-145.01;100.00;64805.59;5092070;28;20026;-59
2023/03/12 01:45:54;;;;;;;12.55;6.10;;;;;;;-145.01;100.00;64805.59;5080855;28;20067;-59
2023/03/12 01:48:19;;;;;;;10.85;6.22;;;;;;;-145.01;100.00;64805.59;5085566;28;20547;-59
2023/03/12 01:50:45;;;;;;;12.00;6.25;;;;;;;-145.01;100.00;64805.59;5077216;28;20025;-59
2023/03/12 01:53:10;;;;;;;13.77;6.03;;;;;;;-145.01;100.00;64805.59;5063299;28;20031;-59
2023/03/12 01:55:36;;;;;;;14.40;6.60;;;;;;;-145.01;100.00;64805.59;5066216;28;20032;-59
2023/03/12 01:58:01;;;;;;;17.15;7.18;;;;;;;-145.01;100.00;64805.59;5061663;28;20029;-59
2023/03/12 02:00:27;;;;;;;14.65;7.82;;;;;;;-145.01;100.00;64805.59;5084614;28;20401;-59
2023/03/12 02:02:55;;;;;;;10.75;6.30;;;;;;;-145.01;100.00;64805.59;5088530;28;20107;-59
2023/03/12 02:05:47;;;;;;;12.23;5.15;;;;;;;-145.01;100.00;64805.59;5066903;28;20035;-59
2023/03/12 02:08:13;;;;;;;13.77;5.22;;;;;;;-145.01;100.00;64805.59;5066990;28;20037;-59
2023/03/12 02:10:39;;;;;;;12.30;6.38;;;;;;;-145.01;100.00;64805.59;5073488;28;20016;-59
2023/03/12 02:13:04;;;;;;;10.95;6.32;;;;;;;-145.01;100.00;64805.59;5088383;28;20371;-59
2023/03/12 02:15:31;;;;;;;10.60;6.20;;;;;;;-145.01;100.00;64805.59;5063024;28;20023;-59
2023/03/12 02:17:57;;;;;;;11.48;5.70;;;;;;;-145.01;100.00;64805.59;5051452;28;20113;-59
2023/03/12 02:20:37;;;;;;;13.45;6.00;;;;;;;-145.01;100.00;64805.59;5091792;28;20020;-59
2023/03/12 02:23:12;;;;;;;8.35;5.47;;;;;;;-145.01;100.00;64805.59;5081820;28;20055;-59
2023/03/12 02:25:43;;;;;;;11.20;5.68;;;;;;;-145.01;100.00;64805.59;5072516;28;20666;-59
2023/03/12 02:28:11;;;;;;;7.82;4.57;;;;;;;-145.01;100.00;64805.59;5057445;28;20187;-59
2023/03/12 02:30:37;;;;;;;7.70;4.72;;;;;;;-145.01;100.00;64805.59;5060410;28;20028;-59
2023/03/12 02:33:05;;;;;;;7.75;4.75;;;;;;;-145.01;100.00;64805.59;5055612;28;20518;-59
2023/03/12 02:35:30;;;;;;;10.88;4.50;;;;;;;-145.01;100.00;64805.59;5088577;28;20023;-59
2023/03/12 02:37:56;;;;;;;7.32;4.45;;;;;;;-145.01;100.00;64805.59;5060462;28;20164;-59
2023/03/12 02:40:32;;;;;;;11.25;4.28;;;;;;;-145.01;100.00;64805.59;5087977;28;20051;-60
2023/03/12 02:42:57;;;;;;;9.52;4.75;;;;;;;-145.01;100.00;64805.59;5078767;28;20036;-59
2023/03/12 02:45:23;;;;;;;8.15;4.72;;;;;;;-145.01;100.00;64805.59;5061844;28;20032;-59
2023/03/12 02:47:48;;;;;;;7.97;5.00;;;;;;;-145.01;100.00;64805.59;5062316;28;20236;-59
2023/03/12 02:50:14;;;;;;;6.80;4.60;;;;;;;-145.01;100.00;64805.59;5089240;28;20466;-60
2023/03/12 02:52:39;;;;;;;9.38;4.90;;;;;;;-145.01;100.00;64805.59;5082963;28;20036;-59
2023/03/12 02:55:05;;;;;;;10.32;4.97;;;;;;;-145.01;100.00;64805.59;5086221;28;20028;-59
2023/03/12 02:57:31;;;;;;;12.80;4.75;;;;;;;-145.01;100.00;64805.59;5089401;28;20032;-59
2023/03/12 02:59:56;;;;;;;7.65;4.20;;;;;;;-145.01;100.00;64805.59;5092196;28;20494;-59
2023/03/12 03:02:23;;;;;;;7.40;4.13;;;;;;;-145.01;100.00;64805.59;5087585;28;20028;-59
2023/03/12 03:04:48;;;;;;;7.45;4.60;;;;;;;-145.01;100.00;64805.59;5085013;28;20467;-60
2023/03/12 03:07:14;;;;;;;9.38;4.72;;;;;;;-145.01;100.00;64805.59;5089437;28;20036;-59
2023/03/12 03:09:39;;;;;;;9.20;4.32;;;;;;;-145.01;100.00;64805.59;5082157;28;20032;-59
2023/03/12 03:12:05;;;;;;;10.18;4.28;;;;;;;-145.01;100.00;64805.59;5082438;28;20096;-59
2023/03/12 03:14:30;;;;;;;10.10;4.13;;;;;;;-145.01;100.00;64805.59;5081410;28;20045;-60
2023/03/12 03:16:57;;;;;;;8.52;4.30;;;;;;;-145.01;100.00;64805.59;5086567;28;20437;-59
2023/03/12 03:19:22;;;;;;;8.38;4.28;;;;;;;-145.01;100.00;64805.59;5090022;28;20031;-59
2023/03/12 03:21:48;;;;;;;8.90;4.22;;;;;;;-145.01;100.00;64805.59;5074047;28;20493;-59
2023/03/12 03:24:13;;;;;;;7.60;4.25;;;;;;;-145.01;100.00;64805.59;5090665;28;20089;-59
2023/03/12 03:26:39;;;;;;;10.18;5.20;;;;;;;-145.01;100.00;64805.59;5082569;28;20036;-59
2023/03/12 03:29:04;;;;;;;11.20;5.43;;;;;;;-145.01;100.00;64805.59;5080578;28;20390;-60
2023/03/12 03:31:30;;;;;;;8.90;4.90;;;;;;;-145.01;100.00;64805.59;5076230;28;20031;-59
2023/03/12 03:33:55;;;;;;;9.48;5.70;;;;;;;-145.01;100.00;64805.59;5086766;28;20035;-59
2023/03/12 03:36:22;;;;;;;11.50;4.93;;;;;;;-145.01;100.00;64805.59;5083953;28;20031;-59
2023/03/12 03:38:49;;;;;;;9.23;4.55;;;;;;;-145.01;100.00;64805.59;5057307;28;20032;-59
2023/03/12 03:41:17;;;;;;;10.38;3.88;;;;;;;-145.01;100.00;64805.59;5086094;28;20580;-59
2023/03/12 03:43:43;;;;;;;7.85;3.33;;;;;;;-145.01;100.00;64805.59;5089328;28;20031;-59
2023/03/12 03:46:09;;;;;;;9.68;4.45;;;;;;;-145.01;100.00;64805.59;5085495;28;20113;-59
2023/03/12 03:48:35;;;;;;;6.68;3.50;;;;;;;-145.01;100.00;64805.59;5076889;28;20031;-59
2023/03/12 03:51:01;;;;;;;8.18;3.83;;;;;;;-145.01;100.00;64805.59;5078434;28;20044;-59
2023/03/12 03:53:26;;;;;;;8.52;3.95;;;;;;;-145.01;100.00;64805.59;5081636;28;20173;-59
2023/03/12 03:55:52;;;;;;;6.90;3.40;;;;;;;-145.01;100.00;64805.59;5083780;28;20089;-59
2023/03/12 03:58:17;;;;;;;7.32;3.10;;;;;;;-145.01;100.00;64805.59;5083403;28;20039;-59
2023/03/12 04:00:44;;;;;;;11.18;3.17;;;;;;;-145.01;100.00;64805.59;5084424;28;20032;-59
2023/03/12 04:03:09;;;;;;;5.45;2.92;;;;;;;-145.01;100.00;64805.59;5089074;28;20028;-59
2023/03/12 04:05:35;;;;;;;4.20;2.60;;;;;;;-145.01;100.00;64805.59;5081649;28;20028;-59
2023/03/12 04:08:02;;;;;;;8.35;2.95;;;;;;;-145.01;100.00;64805.59;5069820;28;20029;-59
2023/03/12 04:10:28;;;;;;;5.88;2.53;;;;;;;-145.01;100.00;64805.59;5080748;28;20304;-59
2023/03/12 04:12:53;;;;;;;9.52;2.90;;;;;;;-145.01;100.00;64805.59;5090986;28;20052;-59
2023/03/12 04:15:19;;;;;;;8.63;2.85;;;;;;;-145.01;100.00;64805.59;5091230;28;20027;-59
2023/03/12 04:17:44;;;;;;;6.72;2.72;;;;;;;-145.01;100.00;64805.59;5079872;28;20487;-59
2023/03/12 04:20:10;;;;;;;6.43;2.50;;;;;;;-145.01;100.00;64805.59;5073522;28;20224;-59
2023/03/12 04:22:36;;;;;;;8.10;2.75;;;;;;;-145.01;100.00;64805.59;5089259;28;20059;-59
2023/03/12 04:25:01;;;;;;;6.68;2.63;;;;;;;-145.01;100.00;64805.59;5081785;28;20108;-60
2023/03/12 04:27:27;;;;;;;6.30;3.13;;;;;;;-145.01;100.00;64805.59;5088523;28;20384;-59
2023/03/12 04:29:52;;;;;;;7.68;2.92;;;;;;;-145.01;100.00;64805.59;5085895;28;20024;-59
2023/03/12 04:32:17;;;;;;;5.65;2.65;;;;;;;-145.01;100.00;64805.59;5079473;28;20381;-59
2023/03/12 04:34:43;;;;;;;6.05;2.55;;;;;;;-145.01;100.00;64805.59;5087182;28;20305;-59
2023/03/12 04:37:12;;;;;;;8.45;2.60;;;;;;;-145.01;100.00;64805.59;5090708;28;20032;-59
2023/03/12 04:39:38;;;;;;;7.47;3.17;;;;;;;-145.01;100.00;64805.59;5090387;28;20023;-59
2023/03/12 04:42:03;;;;;;;5.00;2.78;;;;;;;-145.01;100.00;64805.59;5080433;28;20422;-59
2023/03/12 04:44:29;;;;;;;6.90;2.45;;;;;;;-145.01;100.00;64805.59;5093157;28;20027;-59
2023/03/12 04:46:54;;;;;;;6.80;2.70;;;;;;;-145.01;100.00;64805.59;5073498;28;20040;-59
2023/03/12 04:49:20;;;;;;;8.48;2.55;;;;;;;-145.01;100.00;64805.59;5086122;28;20035;-59
2023/03/12 04:51:45;;;;;;;7.28;2.80;;;;;;;-145.01;100.00;64805.59;5079852;28;20023;-59
2023/03/12 04:54:10;;;;;;;4.95;2.70;;;;;;;-145.01;100.00;64805.59;5094790;28;20087;-60
2023/03/12 04:56:36;;;;;;;12.55;3.50;;;;;;;-145.01;100.00;64805.59;5084704;28;20033;-59
2023/03/12 04:59:01;;;;;;;8.82;4.05;;;;;;;-145.01;100.00;64805.59;5080651;28;20045;-59
2023/03/12 05:01:29;;;;;;;11.93;5.07;;;;;;;-145.01;100.00;64805.59;5051354;28;20041;-60
2023/03/12 05:03:54;;;;;;;9.48;5.43;;;;;;;-145.01;100.00;64805.59;5084864;28;20564;-59
2023/03/12 05:06:21;;;;;;;15.18;6.00;;;;;;;-145.01;100.00;64805.59;5078936;28;20437;-60
2023/03/12 05:08:46;;;;;;;13.18;5.38;;;;;;;-145.01;100.00;64805.59;5084208;28;20024;-60
2023/03/12 05:11:12;;;;;;;14.35;6.85;;;;;;;-145.01;100.00;64805.59;5086975;28;20063;-60
2023/03/12 05:13:38;;;;;;;14.00;6.90;;;;;;;-145.01;100.00;64805.59;5083827;28;20052;-60
2023/03/12 05:16:03;;;;;;;15.15;6.55;;;;;;;-145.01;100.00;64805.59;5082202;28;20036;-60
2023/03/12 05:18:29;;;;;;;13.18;7.03;;;;;;;-145.01;100.00;64805.59;5087024;28;20379;-60
2023/03/12 05:21:07;;;;;;;13.55;6.85;;;;;;;-145.01;100.00;64805.59;5080832;28;20032;-59
2023/03/12 05:23:33;;;;;;;14.07;7.30;;;;;;;-145.01;100.00;64805.59;5079554;28;20039;-60
2023/03/12 05:25:58;;;;;;;13.00;6.75;;;;;;;-145.01;100.00;64805.59;5080209;28;20434;-60
2023/03/12 05:28:27;;;;;;;16.73;7.72;;;;;;;-145.01;100.00;64805.59;5083583;28;20122;-60
2023/03/12 05:30:56;;;;;;;13.52;7.57;;;;;;;-145.01;100.00;64805.59;5056670;28;20487;-60
2023/03/12 05:33:21;;;;;;;13.57;8.02;;;;;;;-145.01;100.00;64805.59;5064419;28;20220;-59
2023/03/12 05:35:47;;;;;;;12.80;6.93;;;;;;;-145.01;100.00;64805.59;5084644;28;20101;-60
2023/03/12 05:38:12;;;;;;;13.88;7.95;;;;;;;-145.01;100.00;64805.59;5080783;28;20039;-60
2023/03/12 05:40:38;;;;;;;16.10;8.52;;;;;;;-145.01;100.00;64805.59;5072944;28;20454;-60
2023/03/12 05:43:03;;;;;;;14.15;8.35;;;;;;;-145.01;100.00;64805.59;5089068;28;20276;-60
2023/03/12 05:45:28;;;;;;;14.88;7.57;;;;;;;-145.01;100.00;64805.59;5062771;28;20028;-60
2023/03/12 05:47:54;;;;;;;13.60;8.00;;;;;;;-145.01;100.00;64805.59;5081112;28;20067;-60
2023/03/12 05:50:19;;;;;;;15.75;7.88;;;;;;;-145.01;100.00;64805.59;5083851;28;20031;-60
2023/03/12 05:52:45;;;;;;;13.75;7.47;;;;;;;-145.01;100.00;64805.59;5076167;28;20465;-60
2023/03/12 05:55:10;;;;;;;13.10;7.22;;;;;;;-145.01;100.00;64805.59;5084562;28;20413;-60
2023/03/12 05:57:36;;;;;;;13.32;7.32;;;;;;;-145.01;100.00;64805.59;5087730;28;20027;-60
2023/03/12 06:00:01;;;;;;;14.55;7.13;;;;;;;-145.01;100.00;64805.59;5082277;28;20203;-60
2023/03/12 06:02:27;;;;;;;11.75;7.97;;;;;;;-145.01;100.00;64805.59;5074851;28;20436;-60
2023/03/12 06:04:52;;;;;;;14.75;8.40;;;;;;;-145.01;100.00;64805.59;5075853;28;20036;-60
2023/03/12 06:07:17;;;;;;;14.18;8.00;;;;;;;-145.01;100.00;64805.59;5078547;28;20044;-60
2023/03/12 06:09:43;;;;;;;16.48;7.95;;;;;;;-145.01;100.00;64805.59;5078120;28;20027;-60
2023/03/12 06:12:08;;;;;;;12.95;8.15;;;;;;;-145.01;100.00;64805.59;5081986;28;20096;-60
2023/03/12 06:14:34;;;;;;;13.93;7.40;;;;;;;-145.01;100.00;64805.59;5079731;28;20109;-60
2023/03/12 06:16:59;;;;;;;16.40;7.97;;;;;;;-145.01;100.00;64805.59;5081544;28;20036;-60
2023/03/12 06:19:24;;;;;;;12.68;7.25;;;;;;;-145.01;100.00;64805.59;5083320;28;20465;-60
2023/03/12 06:21:50;;;;;;;12.38;8.05;;;;;;;-145.01;100.00;64805.59;5098040;28;20027;-60
2023/03/12 06:24:15;;;;;;;10.65;8.05;;;;;;;-145.01;100.00;64805.59;5057146;28;20387;-60
2023/03/12 06:26:41;;;;;;;11.27;7.65;;;;;;;-145.01;100.00;64805.59;5082495;28;20035;-60
2023/03/12 06:29:06;;;;;;;13.15;8.30;;;;;;;-145.01;100.00;64805.59;5084468;28;20032;-60
2023/03/12 06:31:32;;;;;;;9.93;7.40;;;;;;;-145.01;100.00;64805.59;5077263;28;20439;-60
2023/03/12 06:33:57;;;;;;;14.07;9.15;;;;;;;-145.01;100.00;64805.59;5091214;28;20462;-60
2023/03/12 06:36:23;;;;;;;17.42;9.32;;;;;;;-145.01;100.00;64805.59;5090639;28;20362;-60
2023/03/12 06:38:49;;;;;;;12.40;7.45;;;;;;;-145.01;100.00;64805.59;5081282;28;20051;-60
2023/03/12 06:41:15;;;;;;;15.32;8.38;;;;;;;-145.01;100.00;64805.59;5078460;28;20395;-60
2023/03/12 06:43:41;;;;;;;16.98;9.50;;;;;;;-145.01;100.00;64805.59;5067596;28;20040;-59
2023/03/12 06:46:07;;;;;;;15.20;8.65;;;;;;;-145.01;100.00;64805.59;5088816;28;20036;-60
2023/03/12 06:48:35;;;;;;;19.58;11.35;;;;;;;-145.01;100.00;64805.59;5089200;28;20052;-59
2023/03/12 06:51:01;;;;;;;17.77;10.43;;;;;;;-145.01;100.00;64805.59;5074288;28;20024;-59
2023/03/12 06:53:26;;;;;;;19.73;9.13;;;;;;;-145.01;100.00;64805.59;5076355;28;20024;-59
2023/03/12 06:55:52;;;;;;;11.13;7.68;;;;;;;-145.01;100.00;64805.59;5083569;28;20355;-59
2023/03/12 06:58:17;;;;;;;15.90;9.23;;;;;;;-145.01;100.00;64805.59;5077132;28;20036;-59
2023/03/12 07:00:43;;;;;;;14.45;10.07;;;;;;;-145.01;100.00;64805.59;5084613;28;20092;-59
2023/03/12 07:03:08;;;;;;;14.38;8.10;;;;;;;-145.01;100.00;64805.59;5089969;28;20051;-59
2023/03/12 07:05:34;;;;;;;15.30;7.55;;;;;;;-145.01;100.00;64805.59;5069661;28;20382;-60
2023/03/12 07:07:59;;;;;;;13.38;7.38;;;;;;;-145.01;100.00;64805.59;5077704;28;20085;-59
2023/03/12 07:10:28;;;;;;;11.93;6.93;;;;;;;-145.01;100.00;64805.59;5089260;28;20055;-59
2023/03/12 07:12:53;;;;;;;9.52;5.75;;;;;;;-145.01;100.00;64805.59;5056849;28;20052;-59
2023/03/12 07:15:19;;;;;;;11.30;6.85;;;;;;;-145.01;100.00;64805.59;5089669;28;20031;-59
2023/03/12 07:17:44;;;;;;;16.50;8.38;;;;;;;-145.01;100.00;64805.59;5083405;28;20043;-59
2023/03/12 07:20:10;;;;;;;14.88;8.70;;;;;;;-145.01;100.00;64805.59;5078960;28;20029;-59
2023/03/12 07:22:36;;;;;;;10.95;6.38;;;;;;;-145.01;100.00;64805.59;5089955;28;20063;-59
2023/03/12 07:25:01;;;;;;;14.80;8.57;;;;;;;-145.01;100.00;64805.59;5084152;28;20028;-59
2023/03/12 07:27:27;;;;;;;12.98;6.05;;;;;;;-145.01;100.00;64805.59;5084100;28;20023;-60
2023/03/12 07:29:52;;;;;;;11.77;8.27;;;;;;;-145.01;100.00;64805.59;5080187;28;20382;-60
2023/03/12 07:32:17;;;;;;;19.55;12.05;;;;;;;-145.01;100.00;64805.59;5083726;28;20386;-59
2023/03/12 07:34:43;;;;;;;17.38;11.18;;;;;;;-145.01;100.00;64805.59;5050054;28;20024;-60
2023/03/12 07:37:09;;;;;;;12.93;7.57;;;;;;;-145.01;100.00;64805.59;5083446;28;20051;-59
2023/03/12 07:39:34;;;;;;;58.05;25.65;;;;;;;-145.01;100.00;64805.59;5063630;28;20035;-60
2023/03/12 07:42:00;;;;;;;32.08;16.33;;;;;;;-145.01;100.00;64805.59;5084417;28;20039;-60
2023/03/12 07:44:25;;;;;;;12.27;4.32;;;;;;;-145.01;100.00;64805.59;5087592;28;20242;-60
2023/03/12 07:46:52;;;;;;;14.07;6.60;;;;;;;-145.01;100.00;64805.59;5085008;28;20458;-60
2023/03/12 07:49:17;;;;;;;30.10;13.35;;;;;;;-145.01;100.00;64805.59;5082406;28;20027;-60
2023/03/12 07:51:43;;;;;;;18.13;6.50;;;;;;;-145.01;100.00;64805.59;5072066;28;20032;-60
2023/03/12 07:54:08;;;;;;;14.60;6.50;;;;;;;-145.01;100.00;64805.59;5077162;28;20038;-60
2023/03/12 07:56:33;;;;;;;10.90;4.75;;;;;;;-145.01;100.00;64805.59;5065211;28;20509;-60
2023/03/12 07:58:59;;;;;;;12.38;4.93;;;;;;;-145.01;100.00;64805.59;5080942;28;20039;-60
2023/03/12 08:01:30;;;;;;;11.95;4.00;;;;;;;-145.01;100.00;64805.59;5079984;28;20050;-60
2023/03/12 08:03:56;;;;;;;13.43;5.60;;;;;;;-145.01;100.00;64805.59;5075237;28;20533;-59
2023/03/12 08:06:22;;;;;;;11.65;4.20;;;;;;;-145.01;100.00;64805.59;5081637;28;20180;-60
2023/03/12 08:08:47;;;;;;;13.02;4.20;;;;;;;-145.01;100.00;64805.59;5086024;28;20028;-60
2023/03/12 08:11:12;;;;;;;8.05;4.30;;;;;;;-145.01;100.00;64805.59;5083218;28;20656;-60
2023/03/12 08:13:38;;;;;;;14.10;3.88;;;;;;;-145.01;100.00;64805.59;5071679;28;20058;-60
2023/03/12 08:16:04;;;;;;;13.48;4.03;;;;;;;-145.01;100.00;64805.59;5086317;28;20032;-60
2023/03/12 08:18:29;;;;;;;11.85;4.22;;;;;;;-145.01;100.00;64805.59;5083190;28;20036;-60
2023/03/12 08:20:54;;;;;;;8.90;4.07;;;;;;;-145.01;100.00;64805.59;5074882;28;20730;-60
2023/03/12 08:23:20;;;;;;;7.97;3.92;;;;;;;-145.01;100.00;64805.59;5083763;28;20039;-60
2023/03/12 08:25:46;;;;;;;6.47;4.07;;;;;;;-145.01;100.00;64805.59;5081876;28;20524;-59
2023/03/12 08:28:12;;;;;;;8.10;3.65;;;;;;;-145.01;100.00;64805.59;5082011;28;20401;-59
2023/03/12 08:30:37;;;;;;;7.10;3.67;;;;;;;-145.01;100.00;64805.59;5069709;28;20043;-60
2023/03/12 08:33:03;;;;;;;11.27;4.30;;;;;;;-145.01;100.00;64805.59;5058117;28;20450;-60
2023/03/12 08:35:28;;;;;;;10.20;4.63;;;;;;;-145.01;100.00;64805.59;5085221;28;20130;-60
2023/03/12 08:37:55;;;;;;;8.10;4.20;;;;;;;-145.01;100.00;64805.59;5081245;28;20110;-60
2023/03/12 08:40:22;;;;;;;13.05;5.45;;;;;;;-145.01;100.00;64805.59;5084816;28;20594;-61
2023/03/12 08:42:47;;;;;;;16.77;5.75;;;;;;;-145.01;100.00;64805.59;5077834;28;20385;-60
2023/03/12 08:45:14;;;;;;;15.90;6.07;;;;;;;-145.01;100.00;64805.59;5089991;28;20041;-60
2023/03/12 08:47:40;;;;;;;10.20;4.63;;;;;;;-145.01;100.00;64805.59;5084429;28;20034;-60
2023/03/12 08:50:07;;;;;;;9.77;6.03;;;;;;;-145.01;100.00;64805.59;5080389;28;20375;-60
2023/03/12 08:52:32;;;;;;;13.10;5.53;;;;;;;-145.01;100.00;64805.59;5087812;28;20071;-60
2023/03/12 08:54:58;;;;;;;10.00;4.65;;;;;;;-145.01;100.00;64805.59;5079406;28;20039;-60
2023/03/12 08:57:23;;;;;;;10.85;5.40;;;;;;;-145.01;100.00;64805.59;5081545;28;20032;-60
2023/03/12 08:59:49;;;;;;;12.85;5.82;;;;;;;-145.01;100.00;64805.59;5075864;28;20020;-60
2023/03/12 09:02:14;;;;;;;15.63;6.28;;;;;;;-145.01;100.00;64805.59;5087504;28;20033;-60
2023/03/12 09:04:40;;;;;;;15.63;6.93;;;;;;;-145.01;100.00;64805.59;5090997;28;20036;-59
2023/03/12 09:07:05;;;;;;;11.95;5.45;;;;;;;-145.01;100.00;64805.59;5079573;28;20032;-59
2023/03/12 09:09:31;;;;;;;12.07;5.55;;;;;;;-145.01;100.00;64805.59;5081306;28;20366;-61
2023/03/12 09:11:56;;;;;;;14.23;6.68;;;;;;;-145.01;100.00;64805.59;5075479;28;20699;-61
2023/03/12 09:14:22;;;;;;;7.22;4.38;;;;;;;-145.01;100.00;64805.59;5081170;28;20994;-60
2023/03/12 09:16:47;;;;;;;12.60;5.85;;;;;;;-145.01;100.00;64805.59;5062754;28;20458;-60
2023/03/12 09:19:13;;;;;;;10.00;4.53;;;;;;;-145.01;100.00;64805.59;5081412;28;20024;-60
2023/03/12 09:21:38;;;;;;;9.48;4.90;;;;;;;-145.01;100.00;64805.59;5087362;28;20036;-60
2023/03/12 09:24:05;;;;;;;11.15;5.65;;;;;;;-145.01;100.00;64805.59;5086219;28;20028;-60
2023/03/12 09:26:30;;;;;;;18.10;8.13;;;;;;;-145.01;100.00;64805.59;5077478;28;20035;-60
2023/03/12 09:28:56;;;;;;;19.95;6.45;;;;;;;-145.01;100.00;64805.59;5069298;28;20028;-60
2023/03/12 09:31:22;;;;;;;19.73;7.07;;;;;;;-145.01;100.00;64805.59;5081211;28;20028;-60
2023/03/12 09:33:48;;;;;;;11.23;6.95;;;;;;;-145.01;100.00;64805.59;5082391;28;20024;-61
2023/03/12 09:36:13;;;;;;;9.77;6.35;;;;;;;-145.01;100.00;64805.59;5066995;28;20031;-60
2023/03/12 09:38:38;;;;;;;11.57;6.95;;;;;;;-145.01;100.00;64805.59;5083715;28;20271;-60
2023/03/12 09:41:04;;;;;;;14.57;7.03;;;;;;;-145.01;100.00;64805.59;5075514;28;20553;-60
2023/03/12 09:43:37;;;;;;;6.10;3.97;;;;;;;-145.01;100.00;64805.59;5069554;28;20029;-60
2023/03/12 09:46:03;;;;;;;9.23;6.00;;;;;;;-145.01;100.00;64805.59;5080145;28;20337;-60
2023/03/12 09:48:33;;;;;;;14.73;7.32;;;;;;;-145.01;100.00;64805.59;5076026;28;20480;-60
2023/03/12 09:51:29;;;;;;;11.73;6.22;;;;;;;-145.01;100.00;64805.59;5055048;28;20050;-60
2023/03/12 09:53:56;;;;;;;13.07;6.40;;;;;;;-145.01;100.00;64805.59;5053273;28;20076;-60
2023/03/12 09:56:21;;;;;;;7.60;4.97;;;;;;;-145.01;100.00;64805.59;5067938;28;20039;-60
2023/03/12 09:58:47;;;;;;;7.15;4.32;;;;;;;-145.01;100.00;64805.59;5061319;28;20099;-60
2023/03/12 10:01:22;;;;;;;8.27;5.55;;;;;;;-145.01;100.00;64805.59;5074560;28;20028;-61
2023/03/12 10:04:03;;;;;;;10.00;6.40;;;;;;;-145.01;100.00;64805.59;5077281;28;20036;-60
2023/03/12 10:06:56;;;;;;;9.95;5.97;;;;;;;-145.01;100.00;64805.59;5076681;28;20028;-60
2023/03/12 10:09:40;;;;;;;14.10;7.30;;;;;;;-145.01;100.00;64805.59;5020450;28;20024;-60
2023/03/12 10:12:41;;;;;;;9.95;6.63;;;;;;;-145.01;100.00;64805.59;5074744;28;20040;-60
2023/03/12 10:15:25;;;;;;;12.88;6.88;;;;;;;-145.01;100.00;64805.59;5061662;28;20032;-60
2023/03/12 10:18:14;;;;;;;8.50;5.35;;;;;;;-145.01;100.00;64805.59;5072092;28;20303;-60
2023/03/12 10:21:03;;;;;;;13.60;6.50;;;;;;;-145.01;100.00;64805.59;5081988;28;20578;-60
2023/03/12 10:23:47;;;;;;;15.45;7.43;;;;;;;-145.01;100.00;64805.59;5078888;28;20037;-60
2023/03/12 10:26:21;;;;;;;8.35;5.38;;;;;;;-145.01;100.00;64805.59;5079985;28;20672;-60
2023/03/12 10:28:52;;;;;;;12.60;8.57;;;;;;;-145.01;100.00;64805.59;5038408;28;20032;-60
2023/03/12 10:31:26;;;;;;;13.60;7.10;;;;;;;-145.01;100.00;64805.59;5087931;28;20173;-60
2023/03/12 10:33:58;;;;;;;12.25;6.95;;;;;;;-145.01;100.00;64805.59;5079946;28;20140;-60
2023/03/12 10:36:33;;;;;;;8.70;5.85;;;;;;;-145.01;100.00;64805.59;5047003;28;20028;-60
2023/03/12 10:38:58;;;;;;;9.70;6.60;;;;;;;-145.01;100.00;64805.59;5051938;28;20056;-61
2023/03/12 10:41:30;;;;;;;11.85;7.82;;;;;;;-145.01;100.00;64805.59;5092947;28;20028;-60
2023/03/12 10:43:57;;;;;;;10.52;8.02;;;;;;;-145.01;100.00;64805.59;5054304;28;20028;-60
2023/03/12 10:46:38;;;;;;;10.10;5.40;;;;;;;-145.01;100.00;64805.59;5043809;28;20502;-60
2023/03/12 10:49:22;;;;;;;9.80;6.68;;;;;;;-145.01;100.00;64805.59;5078895;28;20172;-60
2023/03/12 10:51:58;;;;;;;12.63;7.22;;;;;;;-145.01;100.00;64805.59;5081406;28;20085;-60
2023/03/12 10:54:37;;;;;;;9.90;6.03;;;;;;;-145.01;100.00;64805.59;5076496;28;20405;-60
2023/03/12 10:57:03;;;;;;;11.50;6.72;;;;;;;-145.01;100.00;64805.59;5079002;28;20043;-60
2023/03/12 10:59:31;;;;;;;12.07;7.38;;;;;;;-145.01;100.00;64805.59;5074992;28;20434;-60
2023/03/12 11:01:56;;;;;;;13.32;8.52;;;;;;;-145.01;100.00;64805.59;5058473;28;20519;-61
2023/03/12 11:04:30;;;;;;;11.05;7.88;;;;;;;-145.01;100.00;64805.59;5080954;28;20100;-60